Portada
METAR-TAF:

METAR-TAF

Aeroports :

Mérida, Mèxic

latitud: 20-56N, longitud: 089-39W, altitud: 10 m

Observació

L'informe es va fer fa 25 minuts, a les 00:51 UTC
Vent calma
Temperatura 21°C
Humitat 60%
Pressió 1019 hPa
Visibilitat: 11.3 km
Cel clar

METAR: MMMD 180051Z 00000KT 7SM SKC 21/13 A3010 RMK SC

Hora: 19:16 (01:16 UTC)

Pronòstic

L'informe es va fer fa 1 hora i 52 minuts, a les 23:24 UTC
Pronòstic vàlid del 18 a les 00 UTC al 19 a les 06 UTC
Vent 10 kt del Est
Visibilitat: 10 km
Núvols disperses a una alçada de 2000 ft
Evolucionant progressivament
l' 18 a les 05 UTC al 18 a les 06 UTC
Vent kt del Nord
A partir de les 18 a les 1700 UTC
Vent 10 kt del Sud-Est
Visibilitat: 10 km
Cel ennuvolat a una alçada de 2000 ft
Evolucionant progressivament
l' 19 a les 00 UTC al 19 a les 01 UTC
Vent kt del Nord

TAF: MMMD 172324Z 1800/1906 08010KT P6SM SCT020 TX27/1820Z TN15/1812Z BECMG 1805/1806 00000KT FM181700 13010KT P6SM BKN020 BECMG 1900/1901 00000KT

Observacions i pronòstics meteorològics de més de 4000 aeroports (METAR i TAF).

Les estacions disponibles són els punts grocs i vermells al mapa.

Posi el ratolí al punt desitjat per veure el nom de l'estació.

Feu clic per veure les observacions i els pronòstics meteorològics.

Per canviar el mapa: feu clic els botons verds amb una creu de color negre per apropar; al botó verd amb un guió per allunyar la imatge; o en les fletxes verdes per a mapes adjacents.


METAR-TAF: